Allensburg, Ohio
Current Conditions -  °F | °C
As of 8:54 PM on Tuesday 21 Oct 2014 (Local Time) from KILN Reporting Station
Overcast Overcast  
Wind Chill: 42°   Ceiling: 3900
Heat Index: 47°   Visibility: 10mi
Dew Point: 40°   Wind: 10mph
Humidity: 77%   Direction: 360°N
Pressure: 30.13"   Gusts: NA
Location:  39.1546°N, 83.569°W
Report Text: KILN 220054Z AUTO 36009KT 10SM OVC039 08/04 A3013 RMK AO2 SLP216 T00830044
Loading
Personal Weather Stations






























Interactive Weather Map
Tropical Storm Tracking
New forecast layout! Learn more

10-Day Weather Forecast

Advertisements
Track Severe Weather on mobile